Time;durP1;ratioP1;P1;durP2;ratioP2;P2;SDS_P1;SDS_P2;PMS_P1;PMS_P2;Temp;Humidity;BMP_temperature;BMP_pressure;BME280_temperature;BME280_humidity;BME280_pressure;Samples;Min_cycle;Max_cycle;Signal;HPM_P1;HPM_P2
2023/01/18 00:01:58;;;;;;;7.27;1.70;;;;;;;16.30;63.38;97775.34;5055902;28;20178;-94
2023/01/18 00:04:23;;;;;;;8.77;1.53;;;;;;;16.21;63.86;97765.66;5054226;28;20639;-92
2023/01/18 00:06:49;;;;;;;3.80;1.67;;;;;;;16.19;63.98;97768.47;5055037;28;20174;-93
2023/01/18 00:09:23;;;;;;;12.63;1.80;;;;;;;16.15;64.37;97766.22;5054765;28;20189;-94
2023/01/18 00:11:49;;;;;;;14.07;2.10;;;;;;;16.08;65.21;97768.66;5055031;28;20173;-91
2023/01/18 00:14:26;;;;;;;6.97;1.77;;;;;;;16.03;65.39;97768.28;5056905;28;20174;-93
2023/01/18 00:16:58;;;;;;;10.50;1.93;;;;;;;16.07;64.95;97769.63;5057106;28;20178;-91
2023/01/18 00:19:26;;;;;;;7.30;1.53;;;;;;;16.04;65.61;97769.09;5054962;28;20198;-93
2023/01/18 00:22:17;;;;;;;8.50;1.20;;;;;;;15.96;65.51;97767.19;5056284;28;20178;-93
2023/01/18 00:24:51;;;;;;;10.03;1.73;;;;;;;16.03;65.49;97775.38;5056516;28;20165;-92
2023/01/18 00:28:11;;;;;;;8.83;1.80;;;;;;;16.15;65.58;97782.09;5058834;28;20173;-94
2023/01/18 00:30:56;;;;;;;6.70;2.23;;;;;;;15.93;65.79;97778.06;5040129;28;20174;-93
2023/01/18 00:33:30;;;;;;;10.57;1.30;;;;;;;15.94;65.93;97785.00;5039644;28;20535;-94
2023/01/18 00:35:58;;;;;;;12.20;2.20;;;;;;;16.02;66.06;97777.16;5040092;28;20196;-93
2023/01/18 00:38:42;;;;;;;8.93;1.27;;;;;;;16.11;65.83;97786.88;5041055;28;20269;-94
2023/01/18 00:41:23;;;;;;;6.70;1.03;;;;;;;16.04;65.60;97784.97;5054840;28;20578;-94
2023/01/18 00:43:50;;;;;;;9.87;2.23;;;;;;;16.21;65.13;97785.00;5053468;28;20170;-93
2023/01/18 00:46:27;;;;;;;9.33;1.70;;;;;;;16.23;65.13;97787.47;5053324;28;20181;-95
2023/01/18 00:48:57;;;;;;;5.97;1.47;;;;;;;16.13;65.61;97776.97;5053754;28;20189;-92
2023/01/18 00:51:41;;;;;;;4.27;1.20;;;;;;;16.20;65.39;97766.63;5053007;28;20193;-95
2023/01/18 00:54:09;;;;;;;4.30;1.80;;;;;;;16.16;65.63;97774.03;5054633;28;20170;-93
2023/01/18 00:56:43;;;;;;;10.93;2.03;;;;;;;16.04;65.57;97774.41;5054589;28;20548;-95
2023/01/18 00:59:11;;;;;;;5.40;1.70;;;;;;;16.09;65.30;97778.22;5053847;28;20296;-94
2023/01/18 01:01:39;;;;;;;7.10;1.73;;;;;;;15.93;66.12;97780.72;5055484;28;20170;-92
2023/01/18 01:06:51;;;;;;;9.33;1.33;;;;;;;16.10;66.12;97779.06;5053803;28;20192;-90
2023/01/18 01:09:26;;;;;;;6.90;1.93;;;;;;;15.98;66.94;97781.09;5054225;28;20169;-96
2023/01/18 01:26:06;;;;;;;5.27;1.17;;;;;;;15.89;67.19;97760.81;5056551;28;20168;-95
2023/01/18 01:28:35;;;;;;;7.07;1.43;;;;;;;15.96;67.12;97769.81;5058285;28;20201;-93
2023/01/18 01:31:07;;;;;;;9.30;1.60;;;;;;;16.02;66.87;97777.16;5060228;28;20317;-94
2023/01/18 01:37:07;;;;;;;8.40;2.40;;;;;;;15.99;66.94;97772.16;5058307;28;20188;-96
2023/01/18 01:39:33;;;;;;;11.80;1.80;;;;;;;15.88;67.60;97780.28;5059376;28;20326;-94
2023/01/18 01:42:17;;;;;;;19.77;2.17;;;;;;;15.93;67.71;97772.78;5058576;28;20170;-95
2023/01/18 01:44:48;;;;;;;7.93;1.43;;;;;;;15.93;66.88;97762.22;5058953;28;20556;-91
2023/01/18 01:50:44;;;;;;;13.87;2.03;;;;;;;16.13;66.71;97774.31;5056720;28;20181;-93
2023/01/18 01:53:16;;;;;;;6.93;2.07;;;;;;;15.97;67.21;97788.19;5056967;28;20178;-91
2023/01/18 01:55:50;;;;;;;11.60;1.80;;;;;;;15.98;67.35;97781.91;5059865;28;20166;-95
2023/01/18 01:58:24;;;;;;;5.63;1.37;;;;;;;15.98;67.09;97783.75;5057315;28;20216;-90
2023/01/18 02:00:58;;;;;;;9.20;1.50;;;;;;;15.92;67.05;97787.78;5058578;28;20166;-92
2023/01/18 02:03:27;;;;;;;8.93;1.60;;;;;;;16.04;66.43;97777.84;5058612;28;20173;-95
2023/01/18 02:06:31;;;;;;;7.57;1.60;;;;;;;16.08;66.31;97776.59;5059871;28;20185;-96
2023/01/18 02:09:23;;;;;;;8.77;1.70;;;;;;;16.02;66.86;97771.88;5059454;28;20184;-96
2023/01/18 02:11:51;;;;;;;16.73;2.43;;;;;;;15.91;66.89;97772.06;5058393;28;20190;-91
2023/01/18 02:14:27;;;;;;;9.80;1.67;;;;;;;16.01;66.68;97750.91;5057682;28;20181;-94
2023/01/18 02:17:16;;;;;;;5.10;1.57;;;;;;;16.05;65.91;97763.66;5056941;28;20170;-93
2023/01/18 02:20:45;;;;;;;14.97;2.20;;;;;;;16.06;65.38;97749.47;5058201;28;20213;-91
2023/01/18 02:23:41;;;;;;;6.50;1.47;;;;;;;16.05;65.42;97739.03;5058892;28;20189;-92
2023/01/18 02:26:15;;;;;;;5.00;2.20;;;;;;;15.93;65.31;97757.72;5058827;28;20177;-94
2023/01/18 02:29:24;;;;;;;5.87;1.43;;;;;;;16.11;64.65;97749.88;5058456;28;20173;-95
2023/01/18 02:32:17;;;;;;;4.03;1.13;;;;;;;16.09;65.14;97746.50;5048282;28;20643;-94
2023/01/18 02:34:57;;;;;;;10.43;1.77;;;;;;;16.09;64.95;97751.78;5055886;28;20184;-91
2023/01/18 02:37:52;;;;;;;10.50;1.60;;;;;;;16.16;64.59;97746.75;5057692;28;20196;-94
2023/01/18 02:41:01;;;;;;;9.83;1.73;;;;;;;16.26;64.18;97748.38;5055170;28;20198;-94
2023/01/18 02:46:38;;;;;;;7.50;1.17;;;;;;;16.26;63.91;97773.97;5057960;28;20227;-94
2023/01/18 02:49:10;;;;;;;11.87;2.50;;;;;;;16.20;63.41;97763.97;5057125;28;20568;-94
2023/01/18 02:51:58;;;;;;;5.53;1.77;;;;;;;16.22;63.28;97762.84;5057730;28;20177;-93
2023/01/18 02:54:49;;;;;;;8.87;1.83;;;;;;;16.18;62.93;97777.34;5060179;28;20229;-95
2023/01/18 02:57:21;;;;;;;11.40;2.30;;;;;;;16.34;62.52;97787.28;5058449;28;20188;-96
2023/01/18 03:00:10;;;;;;;9.23;1.40;;;;;;;16.31;62.52;97790.22;5058079;28;20254;-91
2023/01/18 03:02:40;;;;;;;7.87;1.43;;;;;;;16.36;62.01;97772.94;5054934;28;20162;-95
2023/01/18 03:05:09;;;;;;;7.77;1.20;;;;;;;16.32;61.77;97779.50;5058678;28;20205;-94
2023/01/18 03:08:40;;;;;;;5.93;1.53;;;;;;;16.33;61.83;97773.22;5055689;28;20192;-95
2023/01/18 03:11:35;;;;;;;10.77;2.07;;;;;;;16.41;61.42;97788.34;5014122;28;20252;-95
2023/01/18 03:14:34;;;;;;;8.40;1.50;;;;;;;16.56;60.96;97785.06;5057577;28;20197;-95
2023/01/18 03:20:14;;;;;;;11.40;2.27;;;;;;;16.50;61.26;97796.22;5054159;28;20232;-92
2023/01/18 03:25:49;;;;;;;4.93;1.40;;;;;;;16.46;61.71;97796.66;5055165;28;20176;-92
2023/01/18 03:34:53;;;;;;;11.80;1.87;;;;;;;16.37;63.62;97795.75;5055748;28;20245;-93
2023/01/18 03:37:42;;;;;;;10.50;1.27;;;;;;;16.40;63.42;97797.25;5055112;28;20181;-93
2023/01/18 03:40:23;;;;;;;14.13;2.23;;;;;;;16.19;63.95;97805.47;5058115;28;20261;-94
2023/01/18 03:42:48;;;;;;;11.30;1.83;;;;;;;16.16;64.46;97824.25;5059563;28;20600;-94
2023/01/18 03:45:38;;;;;;;10.33;2.60;;;;;;;16.33;64.32;97812.03;5057685;28;20185;-94
2023/01/18 03:48:13;;;;;;;6.50;1.40;;;;;;;16.22;64.05;97818.38;5057162;28;20193;-93
2023/01/18 03:50:52;;;;;;;15.87;2.30;;;;;;;16.19;64.27;97804.63;5054089;28;20188;-93
2023/01/18 03:53:53;;;;;;;12.23;1.87;;;;;;;16.29;63.78;97810.69;5054187;28;20669;-93
2023/01/18 03:56:55;;;;;;;12.23;2.50;;;;;;;16.26;64.04;97792.47;5055625;28;20578;-94
2023/01/18 03:59:20;;;;;;;6.07;1.93;;;;;;;16.32;63.87;97795.38;5053440;28;20241;-95
2023/01/18 04:01:54;;;;;;;4.30;1.40;;;;;;;16.24;64.05;97795.28;5055035;28;20205;-95
2023/01/18 04:04:19;;;;;;;13.10;2.10;;;;;;;16.17;64.34;97783.63;5054220;28;20172;-90
2023/01/18 04:06:47;;;;;;;5.80;1.40;;;;;;;16.17;65.13;97786.25;5055129;28;20255;-92
2023/01/18 04:09:20;;;;;;;6.87;1.47;;;;;;;16.18;64.72;97777.34;5053676;28;20173;-92
2023/01/18 04:11:48;;;;;;;12.47;2.00;;;;;;;16.07;65.43;97769.63;5056558;28;20181;-96
2023/01/18 04:14:13;;;;;;;9.20;2.30;;;;;;;16.07;65.20;97772.25;5056487;28;20235;-93
2023/01/18 04:16:42;;;;;;;10.87;1.70;;;;;;;16.10;65.33;97782.56;5053654;28;20185;-92
2023/01/18 04:19:10;;;;;;;8.20;2.37;;;;;;;16.06;65.25;97778.56;5054880;28;20190;-93
2023/01/18 04:21:56;;;;;;;10.03;2.03;;;;;;;16.08;65.06;97771.31;5053436;28;20177;-95
2023/01/18 04:24:30;;;;;;;7.57;1.90;;;;;;;16.04;65.46;97772.56;5055169;28;20275;-96
2023/01/18 04:26:56;;;;;;;7.43;1.80;;;;;;;16.11;65.45;97786.88;5054867;28;20200;-93
2023/01/18 04:29:24;;;;;;;9.17;1.33;;;;;;;16.21;64.77;97785.00;5054853;28;20183;-95
2023/01/18 04:31:49;;;;;;;14.97;2.40;;;;;;;16.11;65.21;97791.31;5057115;28;20169;-92
2023/01/18 04:34:21;;;;;;;17.03;2.80;;;;;;;16.09;65.20;97806.50;5053737;28;20688;-92
2023/01/18 04:36:49;;;;;;;17.43;2.37;;;;;;;16.14;65.21;97804.25;5052916;28;20255;-94
2023/01/18 04:39:15;;;;;;;8.90;2.00;;;;;;;16.35;64.34;97799.53;5052988;28;20217;-94
2023/01/18 04:41:43;;;;;;;16.37;2.40;;;;;;;16.36;64.44;97802.00;5053998;28;20184;-93
2023/01/18 04:44:17;;;;;;;15.10;3.30;;;;;;;16.31;64.37;97801.63;5052700;28;20181;-93
2023/01/18 04:46:50;;;;;;;8.33;1.77;;;;;;;16.31;64.12;97801.63;5053435;28;20165;-92
2023/01/18 04:49:49;;;;;;;5.77;1.67;;;;;;;16.15;64.84;97819.09;5053430;28;20169;-93
2023/01/18 04:52:15;;;;;;;7.00;1.83;;;;;;;16.25;64.41;97810.16;5054445;28;20177;-94
2023/01/18 04:55:00;;;;;;;11.03;2.23;;;;;;;16.11;64.94;97823.88;5053651;28;20185;-95
2023/01/18 04:57:26;;;;;;;8.60;2.20;;;;;;;16.14;64.97;97825.38;5053692;28;20182;-92
2023/01/18 05:00:09;;;;;;;10.83;1.97;;;;;;;16.13;64.84;97821.91;5053121;28;20226;-93
2023/01/18 05:02:45;;;;;;;8.80;1.67;;;;;;;16.14;64.53;97820.09;5054156;28;20177;-94
2023/01/18 05:05:14;;;;;;;15.50;2.43;;;;;;;16.23;64.38;97821.84;5056635;28;20205;-93
2023/01/18 05:07:41;;;;;;;5.60;1.40;;;;;;;16.17;64.40;97827.75;5058279;28;20177;-94
2023/01/18 05:10:33;;;;;;;10.97;1.67;;;;;;;16.18;64.23;97830.22;5056498;28;20249;-95
2023/01/18 05:13:02;;;;;;;13.37;1.70;;;;;;;16.10;64.96;97826.66;5058229;28;20174;-94
2023/01/18 05:15:58;;;;;;;;;;;;;;;;;;;;;
2023/01/18 05:18:24;;;;;;;14.70;1.60;;;;;;;16.21;64.56;97839.69;5056756;28;20228;-92
2023/01/18 05:21:30;;;;;;;;;;;;;;;;;;;;;
2023/01/18 05:23:56;;;;;;;16.17;3.53;;;;;;;16.34;64.34;97854.22;5057812;28;20190;-93
2023/01/18 05:26:22;;;;;;;9.37;1.83;;;;;;;16.29;64.37;97851.19;5056945;28;20253;-92
2023/01/18 05:28:49;;;;;;;7.37;1.43;;;;;;;16.27;64.47;97854.97;5056178;28;20196;-92
2023/01/18 05:31:35;;;;;;;12.47;2.20;;;;;;;16.19;64.97;97868.91;5057116;28;20184;-93
2023/01/18 05:34:00;;;;;;;7.97;1.53;;;;;;;16.02;65.65;97867.03;5057697;28;20253;-93
2023/01/18 05:36:29;;;;;;;10.17;1.73;;;;;;;16.19;64.92;97876.84;5055968;28;20182;-94
2023/01/18 05:38:57;;;;;;;11.07;2.37;;;;;;;16.02;65.59;97879.41;5055990;28;20649;-95
2023/01/18 05:44:52;;;;;;;9.63;1.97;;;;;;;16.15;65.14;97882.56;5001632;28;20195;-92
2023/01/18 05:47:40;;;;;;;12.97;2.23;;;;;;;16.28;64.93;97886.53;5056183;28;20177;-93
2023/01/18 05:51:03;;;;;;;7.57;2.00;;;;;;;16.36;64.39;97876.06;5056933;28;20181;-94
2023/01/18 05:53:54;;;;;;;19.07;2.33;;;;;;;16.20;64.91;97878.50;5047803;28;20256;-94
2023/01/18 05:59:53;;;;;;;10.97;1.97;;;;;;;16.09;65.23;97877.88;5055207;28;20213;-92
2023/01/18 06:02:36;;;;;;;20.70;2.77;;;;;;;16.06;65.47;97880.78;5055444;28;20169;-94
2023/01/18 06:05:39;;;;;;;13.20;2.33;;;;;;;16.17;65.25;97870.03;5056455;28;20261;-96
2023/01/18 06:08:08;;;;;;;9.23;1.93;;;;;;;16.02;65.49;97872.31;5037411;28;20178;-92
2023/01/18 06:10:33;;;;;;;9.80;1.70;;;;;;;15.97;65.82;97879.84;5037788;28;20181;-93
2023/01/18 06:13:32;;;;;;;;;;;;;;;;;;;;;
2023/01/18 06:16:31;;;;;;;11.17;2.10;;;;;;;16.03;65.94;97875.78;5049016;28;20185;-94
2023/01/18 06:18:57;;;;;;;6.43;2.00;;;;;;;15.99;66.02;97889.28;5055391;28;20200;-92
2023/01/18 06:21:58;;;;;;;;;;;;;;;;;;;;;
2023/01/18 06:28:25;;;;;;;18.57;2.50;;;;;;;16.01;66.12;97890.97;5054376;28;20176;-93
2023/01/18 06:34:35;;;;;;;16.70;2.43;;;;;;;16.09;65.68;97886.59;5059164;28;20197;-92
2023/01/18 06:37:07;;;;;;;13.00;2.47;;;;;;;16.04;66.13;97883.56;5055862;28;20193;-93
2023/01/18 06:42:25;;;;;;;9.97;2.33;;;;;;;16.03;66.09;97887.22;5058548;28;20190;-94
2023/01/18 06:45:25;;;;;;;12.20;2.17;;;;;;;16.18;66.18;97884.91;5054543;28;20196;-94
2023/01/18 06:48:26;;;;;;;10.27;2.60;;;;;;;16.58;65.19;97902.16;5037206;28;20292;-92
2023/01/18 07:04:01;;;;;;;15.33;3.67;;;;;;;16.89;63.41;97920.34;5013798;28;20249;-94
2023/01/18 07:07:21;;;;;;;12.43;3.10;;;;;;;16.73;64.25;97930.72;4975375;28;20191;-95
2023/01/18 07:10:25;;;;;;;13.77;2.90;;;;;;;16.95;63.91;97927.69;4963721;28;20716;-93
2023/01/18 07:12:56;;;;;;;12.33;2.97;;;;;;;17.13;63.16;97921.41;4977836;28;20687;-94
2023/01/18 07:15:27;;;;;;;18.23;2.20;;;;;;;17.51;62.38;97916.75;5030952;28;20192;-93
2023/01/18 07:17:54;;;;;;;19.43;3.43;;;;;;;17.80;60.97;97918.19;5044300;28;20198;-94
2023/01/18 07:20:20;;;;;;;11.53;2.00;;;;;;;17.73;60.85;97922.47;5055084;28;20738;-94
2023/01/18 07:22:57;;;;;;;11.77;2.43;;;;;;;17.98;60.16;97922.59;5052511;28;20287;-94
2023/01/18 07:25:43;;;;;;;14.40;2.73;;;;;;;18.01;59.45;97914.34;5054738;28;20251;-96
2023/01/18 07:28:13;;;;;;;8.90;2.03;;;;;;;18.00;59.34;97932.09;5054128;28;20173;-93
2023/01/18 07:31:28;;;;;;;;;;;;;;;;;;;;;
2023/01/18 07:34:17;;;;;;;14.53;2.73;;;;;;;18.00;60.10;97933.91;5053092;28;20177;-93
2023/01/18 07:40:05;;;;;;;16.53;4.73;;;;;;;17.87;60.20;97952.03;5032667;28;20334;-93
2023/01/18 07:43:01;;;;;;;19.90;2.40;;;;;;;17.94;59.16;97939.81;5037273;28;20193;-94
2023/01/18 07:45:53;;;;;;;9.33;1.20;;;;;;;17.84;59.85;97961.13;5014656;28;20210;-94
2023/01/18 07:51:32;;;;;;;13.30;2.40;;;;;;;18.11;59.08;97960.97;5049682;28;20230;-92
2023/01/18 07:54:06;;;;;;;12.27;1.47;;;;;;;17.99;59.02;97972.00;5037000;28;20215;-93
2023/01/18 07:56:58;;;;;;;8.33;2.63;;;;;;;18.23;58.76;97972.16;5045790;28;20180;-95
2023/01/18 07:59:49;;;;;;;10.70;2.50;;;;;;;18.31;58.91;97986.31;5056357;28;20223;-92
2023/01/18 08:02:14;;;;;;;11.17;3.03;;;;;;;18.07;58.66;97962.28;5055568;28;20176;-93
2023/01/18 08:04:49;;;;;;;7.43;1.20;;;;;;;18.20;58.56;97973.31;5053965;28;20181;-94
2023/01/18 08:07:16;;;;;;;14.20;2.37;;;;;;;18.01;58.93;97988.56;5055505;28;20661;-93
2023/01/18 08:16:12;;;;;;;9.00;2.33;;;;;;;18.12;58.98;97993.63;5055676;28;20208;-93
2023/01/18 08:19:05;;;;;;;13.33;2.53;;;;;;;18.11;59.24;97990.16;5054184;28;20647;-91
2023/01/18 08:21:32;;;;;;;11.60;1.73;;;;;;;18.17;59.33;97994.00;5055803;28;20180;-94
2023/01/18 08:24:16;;;;;;;13.87;2.13;;;;;;;18.35;58.39;98002.72;5055320;28;20182;-92
2023/01/18 08:30:26;;;;;;;;;;;;;;;;;;;;;
2023/01/18 08:36:19;;;;;;;14.80;1.73;;;;;;;18.48;57.88;98019.09;5073828;28;20195;-94
2023/01/18 08:38:58;;;;;;;14.30;2.17;;;;;;;18.51;56.90;98021.44;5073090;28;20212;-91
2023/01/18 08:41:29;;;;;;;15.73;2.37;;;;;;;18.42;57.31;98009.09;5071747;28;20176;-92
2023/01/18 08:44:16;;;;;;;17.63;2.10;;;;;;;18.44;57.34;98023.03;5073414;28;20180;-95
2023/01/18 08:46:44;;;;;;;10.10;2.23;;;;;;;18.62;56.73;98021.16;5055791;28;20247;-91
2023/01/18 08:49:09;;;;;;;15.33;1.80;;;;;;;18.84;56.79;98009.19;5071707;28;20200;-92
2023/01/18 08:51:37;;;;;;;9.17;1.83;;;;;;;19.02;56.45;98020.53;5068321;28;20205;-93
2023/01/18 08:54:14;;;;;;;8.83;1.67;;;;;;;19.25;54.86;98016.28;5054267;28;20169;-93
2023/01/18 08:56:39;;;;;;;16.77;2.80;;;;;;;19.21;54.91;98022.09;5052340;28;20243;-91
2023/01/18 08:59:15;;;;;;;11.87;2.13;;;;;;;19.24;54.20;98019.09;5052641;28;20205;-92
2023/01/18 09:01:50;;;;;;;16.37;2.67;;;;;;;19.44;53.78;98012.53;5052181;28;20655;-93
2023/01/18 09:04:24;;;;;;;12.67;2.63;;;;;;;19.68;53.21;98022.38;5054482;28;20223;-93
2023/01/18 09:06:52;;;;;;;10.40;1.87;;;;;;;19.70;52.66;98021.22;5054144;28;20653;-94
2023/01/18 09:09:18;;;;;;;11.80;2.33;;;;;;;19.84;52.34;98009.91;5054353;28;20630;-93
2023/01/18 09:12:10;;;;;;;5.47;1.77;;;;;;;19.85;51.96;98006.25;5054432;28;20234;-93
2023/01/18 09:14:49;;;;;;;14.57;1.73;;;;;;;19.94;51.14;97999.94;5052521;28;20552;-94
2023/01/18 09:18:14;;;;;;;6.27;1.60;;;;;;;20.07;50.49;97991.47;5054888;28;20184;-94
2023/01/18 09:20:41;;;;;;;10.67;2.23;;;;;;;20.20;50.19;97991.78;5039866;28;20287;-92
2023/01/18 09:23:17;;;;;;;6.53;1.30;;;;;;;20.04;48.88;97983.81;5036188;28;20178;-91
2023/01/18 09:25:42;;;;;;;5.23;1.20;;;;;;;20.06;49.80;98003.94;5037120;28;20193;-94
2023/01/18 09:28:46;;;;;;;5.10;1.23;;;;;;;19.87;49.09;98008.75;5055021;28;20185;-95
2023/01/18 09:31:18;;;;;;;10.73;1.60;;;;;;;19.95;49.16;98006.94;5043082;28;20195;-92
2023/01/18 09:33:44;;;;;;;11.53;1.87;;;;;;;19.99;49.17;98013.59;5054341;28;20622;-93
2023/01/18 09:36:11;;;;;;;5.83;1.43;;;;;;;19.88;49.36;98011.25;5053522;28;20185;-92
2023/01/18 09:38:45;;;;;;;9.03;1.70;;;;;;;19.95;49.47;98014.91;5053529;28;20221;-96
2023/01/18 09:41:31;;;;;;;8.47;1.50;;;;;;;19.72;49.67;98021.88;5054946;28;20283;-94
2023/01/18 09:44:17;;;;;;;9.07;1.73;;;;;;;19.72;50.66;98023.69;5053609;28;20203;-94
2023/01/18 09:47:11;;;;;;;11.40;1.70;;;;;;;19.81;50.55;98012.91;5053632;28;20736;-93
2023/01/18 09:49:55;;;;;;;;;;;;;;;;;;;;;
2023/01/18 09:52:55;;;;;;;11.73;2.23;;;;;;;19.72;51.44;97997.13;5057307;28;20200;-93
2023/01/18 09:55:40;;;;;;;7.83;1.63;;;;;;;19.89;51.33;97988.97;5056514;28;20182;-93
2023/01/18 10:05:16;;;;;;;7.63;1.87;;;;;;;19.90;50.65;97972.03;5063448;28;20182;-92
2023/01/18 10:08:01;;;;;;;8.90;1.47;;;;;;;19.97;50.82;97972.16;5043361;28;20186;-93
2023/01/18 10:10:32;;;;;;;11.03;2.27;;;;;;;19.96;51.00;97965.22;5055460;28;20166;-94
2023/01/18 10:13:27;;;;;;;11.57;1.67;;;;;;;19.82;49.77;97961.38;5056399;28;20178;-91
2023/01/18 10:16:19;;;;;;;11.13;2.70;;;;;;;20.07;50.70;97970.19;5056278;28;20194;-94
2023/01/18 10:18:54;;;;;;;18.20;2.03;;;;;;;20.20;50.74;97965.97;5056262;28;20288;-92
2023/01/18 10:21:58;;;;;;;;;;;;;;;;;;;;;
2023/01/18 10:25:41;;;;;;;;;;;;;;;;;;;;;
2023/01/18 10:28:47;;;;;;;10.77;2.03;;;;;;;20.81;47.44;97991.13;5055780;28;20177;-94
2023/01/18 10:31:14;;;;;;;8.30;1.73;;;;;;;20.77;47.33;98008.47;5019933;28;20202;-92
2023/01/18 10:33:52;;;;;;;11.90;1.80;;;;;;;20.87;47.62;97997.59;5037382;28;20332;-92
2023/01/18 10:37:06;;;;;;;;;;;;;;;;;;;;;
2023/01/18 10:40:00;;;;;;;8.63;1.83;;;;;;;20.65;47.73;97988.56;5054895;28;20569;-92
2023/01/18 10:42:50;;;;;;;20.70;2.67;;;;;;;20.62;48.36;98023.50;5055395;28;20299;-91
2023/01/18 10:45:22;;;;;;;17.70;2.23;;;;;;;20.35;48.54;98023.88;5058248;28;20192;-93
2023/01/18 10:48:13;;;;;;;8.67;2.03;;;;;;;20.35;48.74;98003.44;5055020;28;20205;-93
2023/01/18 10:50:57;;;;;;;9.30;1.73;;;;;;;19.94;48.88;98007.09;5056428;28;20189;-92
2023/01/18 10:53:22;;;;;;;9.30;1.63;;;;;;;20.09;48.82;98008.09;5055394;28;20200;-93
2023/01/18 10:56:15;;;;;;;12.40;1.93;;;;;;;19.87;48.88;98009.59;5055441;28;20182;-92
2023/01/18 10:59:06;;;;;;;8.37;1.40;;;;;;;19.66;49.47;98000.41;5056650;28;20288;-93
2023/01/18 11:01:57;;;;;;;7.47;1.30;;;;;;;19.55;49.26;98005.06;5056142;28;20276;-90
2023/01/18 11:04:39;;;;;;;8.43;1.50;;;;;;;19.45;48.71;98024.81;5057435;28;20251;-95
2023/01/18 11:07:31;;;;;;;8.43;2.37;;;;;;;19.52;48.88;98028.50;5057428;28;20196;-94
2023/01/18 11:10:05;;;;;;;9.57;2.33;;;;;;;19.63;48.98;98030.81;5056545;28;20166;-95
2023/01/18 11:13:01;;;;;;;11.00;2.40;;;;;;;19.86;49.41;98021.25;5055048;28;20255;-91
2023/01/18 11:16:41;;;;;;;12.37;2.27;;;;;;;20.01;50.15;98018.72;5055866;28;20197;-94
2023/01/18 11:19:27;;;;;;;6.93;1.87;;;;;;;19.96;50.84;98016.56;5053798;28;20274;-91
2023/01/18 11:24:51;;;;;;;10.67;2.63;;;;;;;19.75;51.06;98004.75;5055513;28;20254;-91
2023/01/18 11:28:02;;;;;;;11.93;2.17;;;;;;;19.79;51.52;98020.22;5054448;28;20243;-91
2023/01/18 11:30:28;;;;;;;14.93;2.20;;;;;;;19.63;51.58;98013.06;5037465;28;20188;-91
2023/01/18 11:33:17;;;;;;;10.37;3.03;;;;;;;19.73;51.95;98007.59;5050495;28;20216;-93
2023/01/18 11:35:51;;;;;;;12.47;2.63;;;;;;;19.59;51.53;98002.94;5053616;28;20169;-94
2023/01/18 11:38:42;;;;;;;12.07;2.17;;;;;;;19.78;50.85;97993.81;5054513;28;20648;-92
2023/01/18 11:41:23;;;;;;;10.67;3.37;;;;;;;19.63;51.98;98001.59;5053766;28;20307;-92
2023/01/18 11:44:28;;;;;;;19.13;2.80;;;;;;;19.60;51.44;97999.28;5053325;28;20265;-93
2023/01/18 11:47:02;;;;;;;12.67;2.97;;;;;;;19.52;52.76;98004.59;5054329;28;20324;-91
2023/01/18 11:49:43;;;;;;;11.90;3.00;;;;;;;19.37;52.84;98006.16;5054809;28;20193;-93
2023/01/18 11:53:06;;;;;;;14.33;2.63;;;;;;;19.30;53.65;98013.97;5055237;28;20245;-92
2023/01/18 11:55:37;;;;;;;17.13;2.37;;;;;;;19.19;53.06;98013.44;5021305;23;20230;-94
2023/01/18 11:58:25;;;;;;;13.23;2.43;;;;;;;18.96;53.79;98022.00;4995761;28;20191;-95
2023/01/18 12:01:00;;;;;;;10.70;1.93;;;;;;;19.03;54.79;98035.44;4990859;28;20238;-92
2023/01/18 12:03:48;;;;;;;12.70;2.57;;;;;;;19.33;54.78;98037.56;4995186;28;20171;-93
2023/01/18 12:09:59;;;;;;;12.40;2.63;;;;;;;19.17;54.23;98044.63;4994449;28;20563;-94
2023/01/18 12:12:37;;;;;;;11.17;2.17;;;;;;;19.18;54.83;98047.13;4993533;28;20207;-93
2023/01/18 12:15:48;;;;;;;17.83;3.60;;;;;;;19.11;54.27;98053.25;4994524;28;20164;-91
2023/01/18 12:18:47;;;;;;;19.57;2.30;;;;;;;19.19;54.76;98045.31;4957305;28;20196;-91
2023/01/18 12:21:15;;;;;;;11.27;1.87;;;;;;;19.18;54.45;98044.47;4993411;28;20183;-92
2023/01/18 12:23:53;;;;;;;16.60;3.07;;;;;;;19.02;55.16;98045.25;4993966;28;20657;-91
2023/01/18 12:26:45;;;;;;;23.13;3.83;;;;;;;18.89;55.42;98054.66;4993261;28;20229;-91
2023/01/18 12:29:47;;;;;;;17.50;2.40;;;;;;;18.88;55.62;98059.13;4993233;28;20202;-94
2023/01/18 12:32:49;;;;;;;12.67;2.47;;;;;;;18.98;55.43;98059.84;4993556;28;20207;-94
2023/01/18 12:35:26;;;;;;;15.27;2.40;;;;;;;18.86;55.06;98055.81;4995080;28;20164;-90
2023/01/18 12:38:39;;;;;;;12.03;2.87;;;;;;;18.92;55.70;98055.16;4993387;28;20279;-93
2023/01/18 12:44:30;;;;;;;15.20;3.23;;;;;;;18.87;55.88;98078.69;4984226;28;20194;-94
2023/01/18 12:47:41;;;;;;;20.20;2.87;;;;;;;18.85;55.64;98078.03;4994164;28;20186;-92
2023/01/18 12:50:39;;;;;;;19.20;2.53;;;;;;;18.67;55.88;98076.44;4994691;28;20191;-93
2023/01/18 12:53:12;;;;;;;15.90;1.97;;;;;;;18.59;56.17;98081.69;4983698;28;20199;-95
2023/01/18 12:55:44;;;;;;;12.80;3.50;;;;;;;18.55;56.51;98077.69;4993926;28;20199;-92
2023/01/18 12:58:21;;;;;;;25.30;3.90;;;;;;;18.48;56.44;98063.38;4994263;28;20736;-92
2023/01/18 13:00:58;;;;;;;24.93;4.07;;;;;;;18.37;56.66;98064.41;4995266;28;20204;-94
2023/01/18 13:03:38;;;;;;;18.40;3.97;;;;;;;18.28;56.54;98075.97;4993384;28;20183;-93
2023/01/18 13:06:34;;;;;;;13.97;2.07;;;;;;;18.21;57.05;98061.69;4993464;28;20207;-92
2023/01/18 13:09:42;;;;;;;10.67;2.83;;;;;;;18.04;57.66;98065.16;4991337;28;20199;-92
2023/01/18 13:12:09;;;;;;;20.07;3.60;;;;;;;17.88;57.72;98072.97;4991875;28;20192;-91
2023/01/18 13:15:22;;;;;;;11.87;3.53;;;;;;;17.90;57.92;98071.03;4993957;28;20180;-91
2023/01/18 13:21:50;;;;;;;22.63;3.03;;;;;;;17.87;57.44;98076.63;4987158;28;20203;-94
2023/01/18 13:24:46;;;;;;;18.23;4.37;;;;;;;17.86;57.78;98077.59;4995051;28;20186;-92
2023/01/18 13:27:14;;;;;;;20.57;3.63;;;;;;;17.87;57.13;98081.94;4997625;28;20176;-92
2023/01/18 13:29:40;;;;;;;28.90;4.67;;;;;;;18.01;56.78;98094.63;4996961;28;20192;-94
2023/01/18 13:32:31;;;;;;;19.83;3.03;;;;;;;18.01;56.89;98094.63;4997015;28;20545;-92
2023/01/18 13:35:17;;;;;;;25.43;4.53;;;;;;;18.15;55.63;98110.03;4996683;28;20204;-91
2023/01/18 13:38:37;;;;;;;;;;;;;;;;;;;;;
2023/01/18 13:41:21;;;;;;;17.57;3.43;;;;;;;18.07;55.57;98126.69;4996659;28;20196;-94
2023/01/18 13:43:46;;;;;;;14.90;2.90;;;;;;;17.90;56.32;98114.25;4996729;28;20257;-91
2023/01/18 13:46:20;;;;;;;30.80;3.63;;;;;;;17.76;56.30;98122.75;4997778;28;20179;-93
2023/01/18 13:48:57;;;;;;;22.17;3.67;;;;;;;17.97;55.78;98130.41;4997423;28;20179;-92
2023/01/18 13:51:46;;;;;;;23.20;4.40;;;;;;;17.93;55.70;98137.81;4996774;28;20529;-95
2023/01/18 13:54:16;;;;;;;19.77;3.60;;;;;;;17.98;55.91;98134.72;4996934;28;20709;-91
2023/01/18 13:57:04;;;;;;;21.77;3.77;;;;;;;17.80;56.29;98122.28;4997240;28;20663;-89
2023/01/18 13:59:37;;;;;;;26.80;3.80;;;;;;;17.95;56.48;98129.72;4996973;28;20215;-91
2023/01/18 14:02:25;;;;;;;10.67;2.37;;;;;;;17.76;56.46;98134.19;4997129;28;20183;-91
2023/01/18 14:05:22;;;;;;;30.67;4.37;;;;;;;17.98;55.79;98137.34;4996570;28;20641;-90
2023/01/18 14:08:16;;;;;;;16.67;2.87;;;;;;;17.78;56.38;98147.28;4995739;28;20176;-93
2023/01/18 14:10:48;;;;;;;24.33;3.73;;;;;;;17.69;56.88;98151.66;4996880;28;20203;-91
2023/01/18 14:13:16;;;;;;;15.30;3.43;;;;;;;17.65;56.37;98165.34;4997195;28;20164;-92
2023/01/18 14:15:47;;;;;;;21.90;4.03;;;;;;;17.67;56.53;98193.38;4996709;28;20179;-93
2023/01/18 14:18:21;;;;;;;32.63;3.60;;;;;;;17.64;56.40;98198.13;4996818;28;20156;-92
2023/01/18 14:21:56;;;;;;;19.37;3.17;;;;;;;17.62;56.57;98208.88;4996889;28;20257;-90
2023/01/18 14:28:52;;;;;;;12.37;2.67;;;;;;;17.97;55.85;98209.94;4988528;28;20183;-93
2023/01/18 14:35:51;;;;;;;31.47;5.70;;;;;;;17.89;56.10;98212.50;4973100;28;20602;-94
2023/01/18 14:39:05;;;;;;;22.80;3.57;;;;;;;17.77;56.09;98210.06;4918303;29;20224;-94
2023/01/18 14:42:04;;;;;;;13.20;2.63;;;;;;;17.78;56.51;98213.53;4917795;29;20614;-96
2023/01/18 14:45:02;;;;;;;27.30;4.10;;;;;;;17.75;56.41;98206.72;4902200;29;20193;-94
2023/01/18 14:47:51;;;;;;;27.17;4.10;;;;;;;17.67;56.91;98217.22;4902144;29;20376;-93
2023/01/18 14:50:19;;;;;;;32.83;4.07;;;;;;;17.88;56.42;98213.47;4979796;28;20191;-91